createdAt,value
2019-02-20T00:01:43.935Z,3.52
2019-02-20T00:04:13.449Z,3.26
2019-02-20T00:07:02.323Z,3.17
2019-02-20T00:09:31.833Z,3.12
2019-02-20T00:12:01.311Z,3.11
2019-02-20T00:14:30.866Z,3.06
2019-02-20T00:17:00.361Z,3.03
2019-02-20T00:19:29.859Z,3.00
2019-02-20T00:21:59.353Z,2.93
2019-02-20T00:24:28.861Z,2.88
2019-02-20T00:26:58.351Z,2.81
2019-02-20T00:29:27.931Z,2.78
2019-02-20T00:31:57.504Z,2.80
2019-02-20T00:34:27.007Z,2.81
2019-02-20T00:36:56.499Z,2.82
2019-02-20T00:39:26.024Z,2.89
2019-02-20T00:41:55.553Z,3.03
2019-02-20T00:44:29.485Z,3.16
2019-02-20T00:47:16.528Z,2.92
2019-02-20T00:49:46.036Z,2.92
2019-02-20T00:55:14.932Z,2.95
2019-02-20T00:57:44.447Z,2.55
2019-02-20T01:00:15.586Z,2.39
2019-02-20T01:02:45.067Z,2.29
2019-02-20T01:05:14.751Z,2.30
2019-02-20T01:07:44.269Z,2.29
2019-02-20T01:10:13.801Z,2.31
2019-02-20T01:12:43.367Z,2.23
2019-02-20T01:15:12.964Z,2.23
2019-02-20T01:17:42.483Z,2.52
2019-02-20T01:20:12.126Z,2.39
2019-02-20T01:22:41.651Z,2.28
2019-02-20T01:25:12.395Z,2.26
2019-02-20T01:27:41.914Z,2.22
2019-02-20T01:30:13.255Z,2.14
2019-02-20T01:32:42.757Z,2.14
2019-02-20T01:35:12.497Z,2.06
2019-02-20T01:37:42.030Z,2.01
2019-02-20T01:40:11.530Z,1.97
2019-02-20T01:42:41.041Z,1.93
2019-02-20T01:45:10.533Z,1.99
2019-02-20T01:47:40.050Z,2.17
2019-02-20T01:50:10.265Z,2.27
2019-02-20T01:52:39.828Z,2.33
2019-02-20T01:55:09.787Z,2.51
2019-02-20T01:57:39.275Z,2.44
2019-02-20T02:00:12.548Z,2.37
2019-02-20T02:02:42.042Z,2.25
2019-02-20T02:05:15.430Z,2.22
2019-02-20T02:07:42.863Z,2.23
2019-02-20T02:10:12.447Z,2.30
2019-02-20T02:12:41.934Z,2.34
2019-02-20T02:15:19.988Z,2.38
2019-02-20T02:17:42.720Z,2.34
2019-02-20T02:20:12.238Z,2.30
2019-02-20T02:22:41.729Z,2.30
2019-02-20T02:25:11.370Z,2.33
2019-02-20T02:27:40.868Z,2.29
2019-02-20T02:30:13.891Z,2.29
2019-02-20T02:32:44.614Z,2.20
2019-02-20T02:35:14.114Z,2.10
2019-02-20T02:37:43.600Z,1.99
2019-02-20T02:40:32.443Z,2.35
2019-02-20T02:43:21.259Z,2.34
2019-02-20T02:46:03.523Z,2.04
2019-02-20T02:48:33.039Z,1.90
2019-02-20T02:51:02.540Z,1.79
2019-02-20T02:53:32.033Z,1.65
2019-02-20T02:56:01.517Z,1.68
2019-02-20T02:58:31.026Z,1.72
2019-02-20T03:01:19.898Z,1.69
2019-02-20T03:03:49.419Z,2.01
2019-02-20T03:06:18.911Z,2.01
2019-02-20T03:12:22.460Z,1.56
2019-02-20T03:14:51.959Z,1.05
2019-02-20T03:17:21.450Z,1.51
2019-02-20T03:19:51.026Z,1.72
2019-02-20T03:22:20.519Z,1.76
2019-02-20T03:24:50.062Z,1.93
2019-02-20T03:27:38.916Z,2.32
2019-02-20T03:30:27.771Z,2.06
2019-02-20T03:32:57.288Z,1.97
2019-02-20T03:35:26.800Z,1.86
2019-02-20T03:37:56.280Z,1.88
2019-02-20T03:40:27.057Z,1.90
2019-02-20T03:42:56.541Z,1.97
2019-02-20T03:45:26.051Z,2.01
2019-02-20T03:47:55.539Z,2.04
2019-02-20T03:50:25.074Z,2.05
2019-02-20T03:52:55.711Z,2.09
2019-02-20T03:55:25.219Z,2.03
2019-02-20T03:57:54.705Z,2.06
2019-02-20T04:00:24.214Z,2.44
2019-02-20T04:02:53.704Z,2.53
2019-02-20T04:05:23.938Z,2.54
2019-02-20T04:07:53.432Z,2.05
2019-02-20T04:10:22.940Z,1.78
2019-02-20T04:12:52.451Z,1.69
2019-02-20T04:15:21.943Z,1.64
2019-02-20T04:17:52.073Z,1.62
2019-02-20T04:20:21.598Z,1.72
2019-02-20T04:22:51.127Z,1.75
2019-02-20T04:25:20.664Z,2.03
2019-02-20T04:27:50.170Z,1.78
2019-02-20T04:30:20.259Z,1.72
2019-02-20T04:33:09.108Z,1.63
2019-02-20T04:35:38.620Z,1.57
2019-02-20T04:38:08.342Z,1.36
2019-02-20T04:40:37.847Z,1.42
2019-02-20T04:43:07.361Z,1.26
2019-02-20T04:45:36.885Z,1.32
2019-02-20T04:48:06.406Z,1.43
2019-02-20T04:50:35.962Z,2.11
2019-02-20T04:53:05.466Z,2.23
2019-02-20T04:55:34.961Z,1.97
2019-02-20T04:58:19.172Z,1.69
2019-02-20T05:00:48.754Z,1.65
2019-02-20T05:03:37.602Z,1.73
2019-02-20T05:06:07.091Z,1.74
2019-02-20T05:08:36.608Z,2.39
2019-02-20T05:11:06.152Z,2.01
2019-02-20T05:13:35.658Z,1.89
2019-02-20T05:16:05.761Z,1.80
2019-02-20T05:18:54.603Z,1.75
2019-02-20T05:21:24.119Z,1.70
2019-02-20T05:23:53.620Z,1.70
2019-02-20T05:26:23.107Z,1.81
2019-02-20T05:28:52.622Z,2.14
2019-02-20T05:31:22.132Z,1.68
2019-02-20T05:33:51.631Z,1.56
2019-02-20T05:36:21.181Z,1.32
2019-02-20T05:38:50.720Z,1.37
2019-02-20T05:41:20.242Z,1.32
2019-02-20T05:43:49.721Z,1.21
2019-02-20T05:46:19.262Z,1.18
2019-02-20T05:48:50.759Z,1.28
2019-02-20T05:51:20.014Z,1.13
2019-02-20T05:53:49.550Z,1.03
2019-02-20T05:56:19.119Z,1.02
2019-02-20T05:58:48.638Z,0.99
2019-02-20T06:01:18.134Z,1.12
2019-02-20T06:03:47.657Z,1.22
2019-02-20T06:06:17.168Z,1.28
2019-02-20T06:08:46.644Z,1.33
2019-02-20T06:11:17.043Z,1.39
2019-02-20T06:13:46.999Z,1.43
2019-02-20T06:16:16.495Z,1.45
2019-02-20T06:19:17.808Z,1.55
2019-02-20T06:22:06.632Z,1.58
2019-02-20T06:24:43.921Z,1.51
2019-02-20T06:27:08.014Z,1.50
2019-02-20T06:29:37.509Z,1.78
2019-02-20T06:32:07.045Z,2.08
2019-02-20T06:34:55.900Z,2.01
2019-02-20T06:37:25.409Z,1.90
2019-02-20T06:39:54.945Z,2.23
2019-02-20T06:42:24.430Z,2.17
2019-02-20T06:44:54.654Z,1.88
2019-02-20T06:47:24.143Z,1.82
2019-02-20T06:49:53.653Z,2.14
2019-02-20T06:52:23.148Z,2.13
2019-02-20T06:54:54.204Z,1.97
2019-02-20T06:57:24.120Z,1.92
2019-02-20T07:00:33.846Z,1.99
2019-02-20T07:03:34.588Z,1.98
2019-02-20T07:06:20.445Z,2.10
2019-02-20T07:09:17.979Z,2.29
2019-02-20T07:11:55.011Z,2.40
2019-02-20T07:15:22.559Z,2.59
2019-02-20T07:18:28.252Z,2.75
2019-02-20T07:21:37.979Z,2.89
2019-02-20T07:24:31.135Z,2.94
2019-02-20T07:27:13.757Z,2.98
2019-02-20T07:29:44.739Z,3.10
2019-02-20T07:32:18.053Z,3.83
2019-02-20T07:34:47.553Z,3.57
2019-02-20T07:37:17.038Z,3.60
2019-02-20T07:39:46.557Z,3.61
2019-02-20T07:42:17.104Z,3.61
2019-02-20T07:45:26.833Z,3.51
2019-02-20T07:47:56.318Z,3.64
2019-02-20T07:50:25.830Z,3.88
2019-02-20T07:53:08.155Z,4.05
2019-02-20T07:55:37.703Z,4.20
2019-02-20T07:58:26.539Z,4.54
2019-02-20T08:01:15.391Z,4.84
2019-02-20T08:03:45.000Z,4.89
2019-02-20T08:06:14.520Z,4.58
2019-02-20T08:08:44.004Z,4.69
2019-02-20T08:11:13.537Z,4.78
2019-02-20T08:13:43.028Z,4.76
2019-02-20T08:16:12.548Z,4.70
2019-02-20T08:18:42.035Z,4.53
2019-02-20T08:21:11.552Z,4.58
2019-02-20T08:23:41.074Z,4.47
2019-02-20T08:26:10.581Z,4.63
2019-02-20T08:28:40.077Z,5.16
2019-02-20T08:31:09.588Z,5.15
2019-02-20T08:33:39.077Z,5.91
2019-02-20T08:36:08.587Z,6.06
2019-02-20T08:38:38.096Z,6.87
2019-02-20T08:41:07.580Z,6.94
2019-02-20T08:43:37.082Z,7.55
2019-02-20T08:46:06.603Z,7.80
2019-02-20T08:48:36.159Z,8.21
2019-02-20T08:51:05.692Z,8.51
2019-02-20T08:53:35.188Z,8.17
2019-02-20T08:56:05.965Z,8.56
2019-02-20T08:58:35.458Z,8.79
2019-02-20T09:01:05.042Z,9.72
2019-02-20T09:03:34.586Z,9.83
2019-02-20T09:06:04.090Z,9.42
2019-02-20T09:08:34.497Z,9.29
2019-02-20T09:11:03.994Z,10.50
2019-02-20T09:13:33.493Z,10.39
2019-02-20T09:16:03.001Z,10.21
2019-02-20T09:18:32.496Z,9.62
2019-02-20T09:21:02.797Z,9.79
2019-02-20T09:23:51.654Z,9.71
2019-02-20T09:26:34.520Z,10.05
2019-02-20T09:29:04.075Z,10.63
2019-02-20T09:31:33.577Z,10.47
2019-02-20T09:34:41.456Z,12.10
2019-02-20T09:37:10.971Z,11.98
2019-02-20T09:39:40.490Z,12.85
2019-02-20T09:42:29.321Z,13.41
2019-02-20T09:44:59.165Z,13.58
2019-02-20T09:47:28.684Z,14.50
2019-02-20T09:49:58.172Z,13.31
2019-02-20T09:52:27.699Z,11.71
2019-02-20T09:54:57.219Z,11.52
2019-02-20T09:57:26.713Z,11.20
2019-02-20T09:59:56.231Z,11.01
2019-02-20T10:02:25.787Z,10.86
2019-02-20T10:04:55.298Z,11.22
2019-02-20T10:07:24.815Z,11.91
2019-02-20T10:09:54.307Z,12.00
2019-02-20T10:12:23.814Z,13.76
2019-02-20T10:14:53.316Z,12.98
2019-02-20T10:17:22.863Z,13.20
2019-02-20T10:19:52.350Z,13.07
2019-02-20T10:22:21.868Z,13.20
2019-02-20T10:24:51.362Z,13.32
2019-02-20T10:27:20.970Z,13.85
2019-02-20T10:29:50.463Z,14.01
2019-02-20T10:32:19.955Z,14.02
2019-02-20T10:34:50.724Z,14.22
2019-02-20T10:37:20.273Z,15.02
2019-02-20T10:39:49.784Z,14.59
2019-02-20T10:42:19.325Z,14.49
2019-02-20T10:44:48.810Z,14.06
2019-02-20T10:47:19.575Z,12.80
2019-02-20T10:49:49.078Z,13.94
2019-02-20T10:52:18.596Z,14.77
2019-02-20T10:54:48.090Z,15.71
2019-02-20T10:57:17.640Z,15.73
2019-02-20T10:59:48.398Z,14.81
2019-02-20T11:02:18.047Z,14.45
2019-02-20T11:04:47.570Z,15.75
2019-02-20T11:07:17.112Z,15.38
2019-02-20T11:09:46.603Z,15.78
2019-02-20T11:12:17.111Z,16.03
2019-02-20T11:14:46.639Z,15.95
2019-02-20T11:17:16.159Z,15.13
2019-02-20T11:19:45.681Z,16.20
2019-02-20T11:22:15.194Z,16.36
2019-02-20T11:24:45.662Z,17.20
2019-02-20T11:27:15.190Z,15.25
2019-02-20T11:29:44.706Z,15.59
2019-02-20T11:32:14.209Z,16.73
2019-02-20T11:34:43.782Z,18.31
2019-02-20T11:37:13.964Z,17.67
2019-02-20T11:39:43.485Z,18.81
2019-02-20T11:42:13.030Z,17.69
2019-02-20T11:44:42.566Z,16.71
2019-02-20T11:47:12.086Z,18.07
2019-02-20T11:49:42.042Z,18.34
2019-02-20T11:52:11.557Z,17.13
2019-02-20T11:54:41.061Z,15.26
2019-02-20T11:57:10.847Z,15.13
2019-02-20T11:59:40.374Z,15.06
2019-02-20T12:02:10.445Z,15.24
2019-02-20T12:04:39.942Z,14.22
2019-02-20T12:07:09.463Z,14.64
2019-02-20T12:09:58.307Z,15.00
2019-02-20T12:12:27.825Z,15.28
2019-02-20T12:14:57.330Z,15.82
2019-02-20T12:17:26.869Z,16.24
2019-02-20T12:19:56.435Z,16.79
2019-02-20T12:22:25.952Z,16.74
2019-02-20T12:24:55.463Z,14.77
2019-02-20T12:27:25.067Z,16.86
2019-02-20T12:29:54.566Z,16.80
2019-02-20T12:32:24.111Z,15.30
2019-02-20T12:34:53.606Z,16.12
2019-02-20T12:37:25.019Z,16.87
2019-02-20T12:39:54.380Z,16.47
2019-02-20T12:42:23.907Z,16.21
2019-02-20T12:44:53.429Z,15.46
2019-02-20T12:47:22.948Z,15.46
2019-02-20T12:49:52.474Z,14.59
2019-02-20T12:52:21.990Z,14.81
2019-02-20T12:54:51.504Z,14.60
2019-02-20T12:57:21.083Z,13.66
2019-02-20T12:59:50.574Z,13.98
2019-02-20T13:02:20.089Z,13.76
2019-02-20T13:04:49.587Z,13.16
2019-02-20T13:07:19.133Z,13.82
2019-02-20T13:09:50.154Z,14.01
2019-02-20T13:12:19.785Z,14.24
2019-02-20T13:14:49.994Z,14.85
2019-02-20T13:17:19.529Z,15.00
2019-02-20T13:19:49.027Z,14.67
2019-02-20T13:22:18.592Z,14.52
2019-02-20T13:24:48.106Z,14.46
2019-02-20T13:27:22.779Z,14.20
2019-02-20T13:29:49.586Z,13.58
2019-02-20T13:32:19.135Z,13.66
2019-02-20T13:34:48.631Z,14.14
2019-02-20T13:37:18.158Z,14.82
2019-02-20T13:39:47.656Z,13.91
2019-02-20T13:42:17.453Z,12.82
2019-02-20T13:44:47.010Z,13.50
2019-02-20T13:47:16.563Z,13.02
2019-02-20T13:49:46.400Z,12.83
2019-02-20T13:52:35.268Z,12.87
2019-02-20T13:55:24.241Z,12.39
2019-02-20T13:57:53.768Z,12.27
2019-02-20T14:00:23.264Z,13.33
2019-02-20T14:02:52.786Z,13.63
2019-02-20T14:05:22.577Z,13.44
2019-02-20T14:07:52.106Z,13.12
2019-02-20T14:10:21.603Z,13.21
2019-02-20T14:12:51.202Z,12.73
2019-02-20T14:15:20.702Z,12.55
2019-02-20T14:17:50.255Z,12.47
2019-02-20T14:20:20.229Z,12.72
2019-02-20T14:22:50.628Z,12.47
2019-02-20T14:25:20.116Z,12.21
2019-02-20T14:27:49.629Z,11.99
2019-02-20T14:30:19.234Z,12.09
2019-02-20T14:32:48.774Z,11.85
2019-02-20T14:35:18.920Z,11.64
2019-02-20T14:37:48.437Z,11.62
2019-02-20T14:40:17.939Z,11.63
2019-02-20T14:42:47.508Z,11.49
2019-02-20T14:45:17.268Z,11.36
2019-02-20T14:47:47.257Z,11.18
2019-02-20T14:50:16.746Z,11.14
2019-02-20T14:52:46.255Z,11.22
2019-02-20T14:55:15.759Z,11.16
2019-02-20T14:57:45.286Z,11.15
2019-02-20T15:00:18.386Z,10.95
2019-02-20T15:02:47.893Z,11.01
2019-02-20T15:05:36.905Z,11.06
2019-02-20T15:08:06.439Z,11.04
2019-02-20T15:10:36.037Z,10.74
2019-02-20T15:13:05.589Z,10.68
2019-02-20T15:15:35.080Z,10.59
2019-02-20T15:18:04.675Z,10.59
2019-02-20T15:20:35.586Z,11.10
2019-02-20T15:23:05.253Z,11.11
2019-02-20T15:25:34.775Z,11.01
2019-02-20T15:28:04.758Z,10.94
2019-02-20T15:30:34.316Z,10.75
2019-02-20T15:33:03.849Z,11.40
2019-02-20T15:35:33.379Z,10.89
2019-02-20T15:38:02.910Z,10.96
2019-02-20T15:40:32.419Z,10.61
2019-02-20T15:43:01.938Z,10.64
2019-02-20T15:45:31.449Z,10.91
2019-02-20T15:48:00.969Z,10.43
2019-02-20T15:50:30.500Z,10.37
2019-02-20T15:52:59.991Z,10.18
2019-02-20T15:55:29.526Z,10.23
2019-02-20T15:57:59.111Z,10.03
2019-02-20T16:00:28.610Z,9.95
2019-02-20T16:02:58.439Z,9.87
2019-02-20T16:05:27.937Z,9.97
2019-02-20T16:07:57.456Z,9.82
2019-02-20T16:10:26.987Z,9.70
2019-02-20T16:12:56.502Z,9.22
2019-02-20T16:15:25.988Z,8.85
2019-02-20T16:17:55.825Z,8.71
2019-02-20T16:20:25.336Z,8.65
2019-02-20T16:22:54.838Z,8.07
2019-02-20T16:25:24.333Z,7.86
2019-02-20T16:27:53.899Z,7.50
2019-02-20T16:30:23.410Z,7.04
2019-02-20T16:32:54.495Z,6.63
2019-02-20T16:35:23.990Z,6.34
2019-02-20T16:37:54.010Z,6.10
2019-02-20T16:40:42.870Z,6.06
2019-02-20T16:43:24.903Z,5.90
2019-02-20T16:45:54.390Z,5.90
2019-02-20T16:48:23.961Z,6.18
2019-02-20T16:50:53.448Z,5.88
2019-02-20T16:53:23.025Z,6.20
2019-02-20T16:55:52.560Z,5.77
2019-02-20T16:58:22.084Z,5.71
2019-02-20T17:00:51.691Z,5.70
2019-02-20T17:03:40.562Z,5.51
2019-02-20T17:06:22.850Z,5.42
2019-02-20T17:09:30.793Z,5.33
2019-02-20T17:12:01.507Z,5.24
2019-02-20T17:14:31.114Z,5.10
2019-02-20T17:17:19.943Z,5.00
2019-02-20T17:20:29.721Z,4.93
2019-02-20T17:22:59.287Z,4.85
2019-02-20T17:25:28.793Z,4.69
2019-02-20T17:28:05.564Z,4.68
2019-02-20T17:30:29.533Z,4.64
2019-02-20T17:32:59.161Z,4.55
2019-02-20T17:35:28.780Z,4.48
2019-02-20T17:37:58.263Z,4.42
2019-02-20T17:40:47.121Z,4.41
2019-02-20T17:46:31.020Z,4.28
2019-02-20T17:49:00.544Z,3.90
2019-02-20T17:51:30.052Z,4.53
2019-02-20T17:53:59.587Z,4.22
2019-02-20T17:56:29.073Z,4.10
2019-02-20T17:59:17.932Z,3.97
2019-02-20T18:01:47.425Z,3.92
2019-02-20T18:04:18.048Z,4.07
2019-02-20T18:06:47.534Z,3.93
2019-02-20T18:09:17.060Z,3.74
2019-02-20T18:11:46.582Z,3.67
2019-02-20T18:14:16.120Z,3.64
2019-02-20T18:17:05.679Z,3.61
2019-02-20T18:19:35.209Z,3.61
2019-02-20T18:22:04.744Z,3.52
2019-02-20T18:24:34.258Z,3.44
2019-02-20T18:27:03.802Z,3.46
2019-02-20T18:29:33.308Z,4.04
2019-02-20T18:32:02.813Z,3.85
2019-02-20T18:34:32.333Z,4.14
2019-02-20T18:37:02.309Z,4.12
2019-02-20T18:39:31.847Z,3.74
2019-02-20T18:42:01.317Z,3.53
2019-02-20T18:44:30.855Z,3.40
2019-02-20T18:47:00.371Z,3.27
2019-02-20T18:49:30.487Z,3.93
2019-02-20T18:51:59.991Z,3.89
2019-02-20T18:54:29.517Z,4.09
2019-02-20T18:56:59.078Z,4.07
2019-02-20T18:59:28.525Z,4.06
2019-02-20T19:01:58.654Z,3.83
2019-02-20T19:04:28.730Z,3.61
2019-02-20T19:06:58.211Z,3.51
2019-02-20T19:09:27.788Z,3.45
2019-02-20T19:12:10.717Z,3.31
2019-02-20T19:15:14.775Z,3.19
2019-02-20T19:17:54.720Z,3.03
2019-02-20T19:20:41.442Z,3.12
2019-02-20T19:23:32.042Z,3.11
2019-02-20T19:26:20.366Z,3.04
2019-02-20T19:29:19.617Z,3.08
2019-02-20T19:32:14.648Z,3.05
2019-02-20T19:35:17.000Z,3.01
2019-02-20T19:38:09.608Z,3.00
2019-02-20T19:41:02.096Z,2.90
2019-02-20T19:43:48.017Z,2.88
2019-02-20T19:47:02.568Z,3.35
2019-02-20T19:49:45.363Z,3.43
2019-02-20T19:52:51.146Z,3.36
2019-02-20T19:55:49.839Z,3.16
2019-02-20T19:58:57.764Z,3.10
2019-02-20T20:02:04.101Z,3.05
2019-02-20T20:04:56.639Z,2.89
2019-02-20T20:08:01.584Z,2.93
2019-02-20T20:11:03.998Z,3.00
2019-02-20T20:13:43.948Z,2.92
2019-02-20T20:17:02.647Z,2.90
2019-02-20T20:19:54.927Z,2.91
2019-02-20T20:23:06.273Z,2.87
2019-02-20T20:26:18.194Z,2.88
2019-02-20T20:29:13.348Z,2.88
2019-02-20T20:31:56.027Z,2.88
2019-02-20T20:34:33.042Z,2.97
2019-02-20T20:37:10.150Z,3.14
2019-02-20T20:39:59.029Z,3.17
2019-02-20T20:43:01.596Z,3.26
2019-02-20T20:45:57.826Z,3.12
2019-02-20T20:48:52.480Z,3.06
2019-02-20T20:51:59.439Z,2.92
2019-02-20T20:54:39.310Z,2.85
2019-02-20T20:58:06.829Z,2.85
2019-02-20T21:01:36.568Z,2.82
2019-02-20T21:04:23.870Z,2.75
2019-02-20T21:07:51.422Z,2.71
2019-02-20T21:10:40.204Z,2.79
2019-02-20T21:13:37.847Z,2.74
2019-02-20T21:16:47.572Z,2.73
2019-02-20T21:19:49.588Z,1.63
2019-02-20T21:22:38.308Z,2.39
2019-02-20T21:25:27.200Z,2.32
2019-02-20T21:28:37.279Z,2.18
2019-02-20T21:31:30.913Z,2.11
2019-02-20T21:34:13.824Z,2.00
2019-02-20T21:36:50.483Z,1.86
2019-02-20T21:39:48.270Z,1.77
2019-02-20T21:42:34.549Z,1.69
2019-02-20T21:45:31.469Z,1.57
2019-02-20T21:48:24.809Z,1.51
2019-02-20T21:51:52.308Z,1.45
2019-02-20T21:54:44.323Z,1.26
2019-02-20T21:57:23.937Z,1.14
2019-02-20T22:00:04.069Z,1.34
2019-02-20T22:02:46.942Z,1.29
2019-02-20T22:05:26.676Z,1.29
2019-02-20T22:08:09.025Z,1.37
2019-02-20T22:11:09.757Z,1.38
2019-02-20T22:14:00.324Z,1.35
2019-02-20T22:16:46.055Z,1.37
2019-02-20T22:19:41.134Z,1.38
2019-02-20T22:22:39.095Z,1.37
2019-02-20T22:25:32.531Z,1.39
2019-02-20T22:29:00.045Z,1.42
2019-02-20T22:32:00.681Z,1.29
2019-02-20T22:34:49.420Z,1.45
2019-02-20T22:37:35.290Z,1.50
2019-02-20T22:40:33.259Z,1.43
2019-02-20T22:43:34.322Z,1.39
2019-02-20T22:46:26.025Z,1.25
2019-02-20T22:49:08.497Z,1.19
2019-02-20T22:51:48.584Z,1.08
2019-02-20T22:55:00.317Z,1.00
2019-02-20T22:57:40.020Z,0.99
2019-02-20T23:01:03.403Z,0.93
2019-02-20T23:03:55.467Z,0.92
2019-02-20T23:06:32.820Z,1.25
2019-02-20T23:09:18.415Z,1.54
2019-02-20T23:12:28.136Z,1.28
2019-02-20T23:14:58.883Z,1.29
2019-02-20T23:17:31.158Z,1.16
2019-02-20T23:20:00.666Z,1.02
2019-02-20T23:22:30.164Z,0.92
2019-02-20T23:24:59.684Z,0.87
2019-02-20T23:27:29.191Z,0.82
2019-02-20T23:30:18.053Z,0.90
2019-02-20T23:33:07.005Z,0.81
2019-02-20T23:35:36.492Z,1.18
2019-02-20T23:38:06.074Z,1.01
2019-02-20T23:40:35.561Z,0.80
2019-02-20T23:43:05.201Z,0.72
2019-02-20T23:45:34.810Z,0.63
2019-02-20T23:48:04.392Z,0.54
2019-02-20T23:50:33.882Z,0.45
2019-02-20T23:53:03.403Z,0.42
2019-02-20T23:55:32.892Z,0.52
2019-02-20T23:58:02.384Z,0.44
